Airfield :
LOGIN :

Register | Disclaimer

   EN    FR    IT 

 










Legend :    VFR   Marginal VFR   IFR   Intensive IFR   Very Intensive IFR
Visi :
Ceiling :
>= 8 km
>= 3000ft
5 to 8 km
1000 to 3000 ft
1500m to 5 km
500 to 1000 ft
800 to 1500m
200 to 500 ft
< 800m
< 200 ft
Symbols :   Thunderstorms  Fog  Heavy snow  Heavy precipitations  Wind > 20 kt
SIGMETs :     Misc.  Thunderstorms  Icing  Turbulence  Mountain Waves  Volcanic Ashes






- Airport Elevation : 219 ft
- IATA code : DNR


LFRD - Dinard

CURRENT METAR :
  • 222030Z AUTO 11012KT 080V150 9999 BKN013/// OVC032/// ///TCU 09/08 Q0984 TEMPO 4000 RA BECMG 14015G25KT BKN012

EXPIRED METARs :
  • 222000Z AUTO 11011KT 9999 -RADZ FEW016/// BKN029/// OVC035/// ///TCU 09/08 Q0984 TEMPO 4000 RA BECMG 14015G25KT BKN012
  • 221930Z AUTO 12012KT 9999 -RA FEW033 SCT049 BKN096 09/07 Q0985 TEMPO 3000 RA BKN005 BECMG 12015G30KT
  • 221900Z AUTO 11011KT 9999 BKN045 BKN066 OVC076 09/07 Q0985 TEMPO 3000 RA BKN005 BECMG 12015G30KT
  • 221830Z AUTO 11011KT 080V150 9999 -RA OVC041/// ///TCU 09/07 Q0985 TEMPO 3000 RA BKN005 BECMG 12015G30KT
  • 221800Z AUTO 11011KT 090V150 9000 -RA FEW027/// BKN039/// OVC045/// ///TCU 09/07 Q0986 TEMPO 3000 RA BKN005 BECMG 12015G30KT

TAF AMD TAF LFRD
Valid from the 22 at 19:00 until the 23 at 18:00 UTC


221929Z 2219/2318 14015G25KT 9999 BKN030
TEMPO 2219/2223 4000 RA
BECMG 2220/2223 BKN012
BECMG 2223/2302 14010KT
TEMPO 2223/2310 3000 RADZ BKN004
BECMG 2307/2310 VRB05KT
BECMG 2310/2312 BKN020
TEMPO 2314/2318 29010KT 5000 RA BKN012
ATIS : +33 2 99 16 81 50



MET'MAP, your aeronautical weather chart ! - Copyright ORBIFLY December 2007 - Disclaimer

ORBIFLY MET'MAP TEAM :

Programming & Development : Alexandra Zaïnal
Concept & Development : Baudouin d'Aumeries
Co-Development & Prog : Marc-Olivier Méhu
Technical & hardware support : Manuel Goepfert

Contact : metmap@orbifly.com




SOURCES & CREDITS :

   NOAA